Station Historical Data
Daily Summary for January 18, 2012 Units:  Metric    English   Both
« Previous Day
Next Day »
Daily Weekly Monthly Yearly Custom
  High: Low: Average:
Temperature: 3.3 °C -2.4 °C -0.1 °C
Dew Point: -0.9 °C -5.6 °C -3.9 °C
Humidity: 85% 60% 76%
Wind Speed: 22.5km/h 0km/h 7.2km/h
Wind Gust: 29km/h - -
Wind- - SSW
Pressure: 1026.6 hPa 1020.2 hPa -
Precipitation: 0 mm    
Historical Graphs
 
 
Tabular Data for January 18, 2012
Time Temperature Dew Point Pressure Wind Wind Speed Wind Gust Humidity Rainfall Rate (Hourly) Conditions
00:00 1.3 °C -0.9 °C 1021.9 hPa NW 14.5 km/h 20.9 km/h 85% 0 mm
00:01 1.3 °C -0.9 °C 1022.2 hPa WNW 6.4 km/h 20.9 km/h 85% 0 mm
00:06 1.1 °C -1.1 °C 1021.9 hPa WNW 16.1 km/h 20.9 km/h 85% 0 mm
00:11 0.9 °C -1.4 °C 1022.2 hPa NW 20.9 km/h 25.7 km/h 84% 0 mm
00:16 0.8 °C -1.6 °C 1021.9 hPa NNW 14.5 km/h 20.9 km/h 84% 0 mm
00:21 0.7 °C -1.7 °C 1022.2 hPa NW 17.7 km/h 29 km/h 84% 0 mm
00:26 0.6 °C -1.8 °C 1022.2 hPa NW 16.1 km/h 22.5 km/h 84% 0 mm
00:32 0.4 °C -1.9 °C 1022.2 hPa NNW 9.7 km/h 16.1 km/h 84% 0 mm
00:37 0.3 °C -1.9 °C 1022.2 hPa NNW 17.7 km/h 19.3 km/h 85% 0 mm
00:42 0.3 °C -2.3 °C 1022.2 hPa NNW 16.1 km/h 22.5 km/h 83% 0 mm
00:47 0.2 °C -2.2 °C 1022.2 hPa WNW 4.8 km/h 14.5 km/h 84% 0 mm
00:52 0.2 °C -2.2 °C 1022.2 hPa NNW 12.9 km/h 17.7 km/h 84% 0 mm
00:57 0.1 °C -2.3 °C 1022.2 hPa NNW 9.7 km/h 17.7 km/h 84% 0 mm
01:02 0 °C -2.4 °C 1022.2 hPa NNW 16.1 km/h 19.3 km/h 84% 0 mm
01:07 -0.1 °C -2.4 °C 1022.2 hPa North 16.1 km/h 17.7 km/h 84% 0 mm
01:12 -0.1 °C -2.4 °C 1022.2 hPa NNW 11.3 km/h 16.1 km/h 84% 0 mm
01:17 -0.1 °C -2.4 °C 1022.6 hPa WNW 11.3 km/h 16.1 km/h 84% 0 mm
01:22 -0.1 °C -2.6 °C 1022.6 hPa NNW 9.7 km/h 19.3 km/h 83% 0 mm
01:27 -0.1 °C -2.4 °C 1022.6 hPa NW 11.3 km/h 17.7 km/h 84% 0 mm
01:32 -0.1 °C -2.6 °C 1022.6 hPa NW 11.3 km/h 19.3 km/h 83% 0 mm
01:37 -0.1 °C -2.8 °C 1022.2 hPa West 20.9 km/h 22.5 km/h 82% 0 mm
01:42 -0.1 °C -2.7 °C 1022.6 hPa NW 12.9 km/h 20.9 km/h 83% 0 mm
01:47 -0.2 °C -2.9 °C 1022.2 hPa North 17.7 km/h 20.9 km/h 82% 0 mm
01:52 -0.3 °C -3 °C 1022.2 hPa North 9.7 km/h 17.7 km/h 82% 0 mm
01:57 -0.4 °C -3.1 °C 1022.2 hPa NW 8 km/h 16.1 km/h 82% 0 mm
02:02 -0.4 °C -3.2 °C 1022.2 hPa North 14.5 km/h 22.5 km/h 81% 0 mm
02:07 -0.4 °C -3.1 °C 1021.9 hPa NNW 17.7 km/h 24.1 km/h 82% 0 mm
02:12 -0.4 °C -3.3 °C 1021.9 hPa NNE 22.5 km/h 22.5 km/h 81% 0 mm
02:17 -0.5 °C -3.2 °C 1021.9 hPa North 6.4 km/h 16.1 km/h 82% 0 mm
02:22 -0.6 °C -3.2 °C 1021.9 hPa North 9.7 km/h 11.3 km/h 82% 0 mm
02:27 -0.6 °C -3.1 °C 1021.9 hPa North 9.7 km/h 12.9 km/h 83% 0 mm
02:32 -0.6 °C -3.1 °C 1021.9 hPa North 8 km/h 16.1 km/h 83% 0 mm
02:37 -0.5 °C -3.1 °C 1021.9 hPa North 17.7 km/h 17.7 km/h 83% 0 mm
02:42 -0.4 °C -3 °C 1021.9 hPa NNW 11.3 km/h 20.9 km/h 83% 0 mm
02:47 -0.3 °C -3.1 °C 1021.9 hPa NNE 12.9 km/h 19.3 km/h 82% 0 mm
02:52 -0.3 °C -2.8 °C 1021.9 hPa NNW 4.8 km/h 16.1 km/h 83% 0 mm
02:57 -0.3 °C -3 °C 1022.2 hPa North 16.1 km/h 19.3 km/h 82% 0 mm
03:03 -0.3 °C -3.2 °C 1022.2 hPa NNW 12.9 km/h 14.5 km/h 81% 0 mm
03:08 -0.4 °C -3.4 °C 1022.2 hPa NNW 8 km/h 16.1 km/h 80% 0 mm
03:13 -0.6 °C -3.4 °C 1022.2 hPa NNE 14.5 km/h 14.5 km/h 81% 0 mm
03:18 -0.8 °C -3.8 °C 1022.2 hPa NNW 8 km/h 17.7 km/h 80% 0 mm
03:23 -0.9 °C -3.7 °C 1022.2 hPa NNW 11.3 km/h 16.1 km/h 81% 0 mm
03:28 -1.1 °C -3.9 °C 1022.2 hPa North 9.7 km/h 14.5 km/h 81% 0 mm
03:33 -1.1 °C -3.9 °C 1022.6 hPa North 9.7 km/h 16.1 km/h 81% 0 mm
03:38 -1.2 °C -4 °C 1022.6 hPa NNW 8 km/h 14.5 km/h 81% 0 mm
03:43 -1.3 °C -4.1 °C 1022.6 hPa NNW 6.4 km/h 11.3 km/h 81% 0 mm
03:48 -1.4 °C -4.1 °C 1022.6 hPa NNW 6.4 km/h 9.7 km/h 82% 0 mm
03:53 -1.4 °C -4.2 °C 1022.6 hPa NNW 9.7 km/h 16.1 km/h 81% 0 mm
03:58 -1.4 °C -4.2 °C 1022.6 hPa NNW 8 km/h 16.1 km/h 81% 0 mm
04:03 -1.5 °C -4.2 °C 1022.6 hPa NNW 8 km/h 11.3 km/h 82% 0 mm
04:08 -1.6 °C -4.3 °C 1022.6 hPa North 9.7 km/h 12.9 km/h 82% 0 mm
04:14 -1.7 °C -4.3 °C 1022.6 hPa NNW 8 km/h 16.1 km/h 82% 0 mm
04:19 -1.6 °C -4.3 °C 1022.9 hPa NW 11.3 km/h 17.7 km/h 82% 0 mm
04:24 -1.6 °C -4.3 °C 1022.9 hPa NW 6.4 km/h 12.9 km/h 82% 0 mm
04:29 -1.7 °C -4.3 °C 1022.9 hPa NNW 12.9 km/h 12.9 km/h 82% 0 mm
04:34 -1.7 °C -4.4 °C 1022.6 hPa NW 8 km/h 12.9 km/h 82% 0 mm
04:39 -1.8 °C -4.3 °C 1022.9 hPa NNW 8 km/h 12.9 km/h 83% 0 mm
04:44 -1.8 °C -4.3 °C 1022.9 hPa North 9.7 km/h 12.9 km/h 83% 0 mm
04:49 -1.8 °C -4.3 °C 1022.9 hPa NW 12.9 km/h 20.9 km/h 83% 0 mm
04:54 -1.8 °C -4.3 °C 1022.9 hPa NW 6.4 km/h 17.7 km/h 83% 0 mm
04:59 -1.9 °C -4.2 °C 1023.2 hPa NNW 6.4 km/h 12.9 km/h 84% 0 mm
05:04 -2 °C -4.3 °C 1023.2 hPa NNE 12.9 km/h 16.1 km/h 84% 0 mm
05:09 -2.1 °C -4.4 °C 1023.2 hPa NNW 9.7 km/h 11.3 km/h 84% 0 mm
05:14 -2.1 °C -4.4 °C 1023.2 hPa NW 9.7 km/h 12.9 km/h 84% 0 mm
05:19 -2.1 °C -4.4 °C 1023.6 hPa NW 8 km/h 14.5 km/h 84% 0 mm
05:24 -2.1 °C -4.4 °C 1023.6 hPa NNW 6.4 km/h 11.3 km/h 84% 0 mm
05:29 -2.1 °C -4.4 °C 1023.6 hPa NNW 9.7 km/h 12.9 km/h 84% 0 mm
05:34 -2.1 °C -4.4 °C 1023.6 hPa NW 8 km/h 11.3 km/h 84% 0 mm
05:40 -2.1 °C -4.4 °C 1023.6 hPa NNW 6.4 km/h 16.1 km/h 84% 0 mm
05:45 -2.2 °C -4.5 °C 1023.6 hPa NW 3.2 km/h 9.7 km/h 84% 0 mm
05:50 -2.2 °C -4.5 °C 1023.6 hPa NNW 9.7 km/h 12.9 km/h 84% 0 mm
05:55 -2.2 °C -4.5 °C 1023.6 hPa NNW 8 km/h 12.9 km/h 84% 0 mm
06:00 -2.2 °C -4.3 °C 1023.9 hPa NNW 9.7 km/h 16.1 km/h 85% 0 mm
06:05 -2.1 °C -4.6 °C 1023.9 hPa North 8 km/h 17.7 km/h 83% 0 mm
06:10 -2.1 °C -4.6 °C 1023.9 hPa NW 8 km/h 14.5 km/h 83% 0 mm
06:15 -2 °C -4.7 °C 1023.9 hPa NNW 12.9 km/h 19.3 km/h 82% 0 mm
06:20 -1.9 °C -4.6 °C 1023.9 hPa NNW 9.7 km/h 17.7 km/h 82% 0 mm
06:25 -1.9 °C -4.8 °C 1023.9 hPa NNW 9.7 km/h 16.1 km/h 81% 0 mm
06:30 -1.9 °C -4.9 °C 1023.9 hPa NW 14.5 km/h 19.3 km/h 80% 0 mm
06:35 -1.9 °C -4.7 °C 1023.9 hPa NNE 12.9 km/h 17.7 km/h 81% 0 mm
06:40 -1.9 °C -4.9 °C 1023.9 hPa NW 12.9 km/h 17.7 km/h 80% 0 mm
06:45 -1.9 °C -5.1 °C 1023.9 hPa NW 12.9 km/h 24.1 km/h 79% 0 mm
06:50 -1.9 °C -5.1 °C 1024.3 hPa NW 11.3 km/h 17.7 km/h 79% 0 mm
06:55 -1.9 °C -5.1 °C 1024.3 hPa NNE 16.1 km/h 19.3 km/h 79% 0 mm
07:00 -1.9 °C -4.9 °C 1024.3 hPa NNW 9.7 km/h 16.1 km/h 80% 0 mm
07:06 -1.9 °C -4.9 °C 1024.3 hPa NNW 6.4 km/h 16.1 km/h 80% 0 mm
07:11 -1.9 °C -4.9 °C 1024.3 hPa NW 9.7 km/h 14.5 km/h 80% 0 mm
07:16 -1.9 °C -4.8 °C 1024.3 hPa NNW 6.4 km/h 11.3 km/h 81% 0 mm
07:21 -2 °C -5 °C 1024.3 hPa NNE 11.3 km/h 19.3 km/h 80% 0 mm
07:26 -2 °C -5 °C 1024.3 hPa NNW 14.5 km/h 17.7 km/h 80% 0 mm
07:31 -2 °C -5 °C 1024.3 hPa NNW 9.7 km/h 17.7 km/h 80% 0 mm
07:36 -2 °C -4.8 °C 1024.3 hPa NNW 6.4 km/h 12.9 km/h 81% 0 mm
07:41 -2 °C -5 °C 1024.6 hPa NNW 8 km/h 17.7 km/h 80% 0 mm
07:46 -2 °C -5 °C 1024.6 hPa North 11.3 km/h 16.1 km/h 80% 0 mm
07:51 -2 °C -5 °C 1024.3 hPa NNW 12.9 km/h 16.1 km/h 80% 0 mm
07:56 -2 °C -4.8 °C 1024.6 hPa NE 14.5 km/h 14.5 km/h 81% 0 mm
08:01 -2 °C -5 °C 1024.6 hPa North 11.3 km/h 16.1 km/h 80% 0 mm
08:06 -2.1 °C -4.9 °C 1024.6 hPa NNE 11.3 km/h 14.5 km/h 81% 0 mm
08:11 -2.1 °C -5.1 °C 1024.6 hPa North 14.5 km/h 16.1 km/h 80% 0 mm
08:16 -2.2 °C -5.2 °C 1024.6 hPa NNE 9.7 km/h 19.3 km/h 80% 0 mm
08:21 -2.2 °C -5.4 °C 1024.6 hPa NNE 9.7 km/h 19.3 km/h 79% 0 mm
08:26 -2.3 °C -5.5 °C 1024.9 hPa NNW 11.3 km/h 17.7 km/h 79% 0 mm
08:31 -2.3 °C -5.3 °C 1024.9 hPa North 6.4 km/h 16.1 km/h 80% 0 mm
08:36 -2.3 °C -5.3 °C 1024.9 hPa North 8 km/h 14.5 km/h 80% 0 mm
08:41 -2.3 °C -5.3 °C 1024.9 hPa NW 11.3 km/h 17.7 km/h 80% 0 mm
08:46 -2.3 °C -5.3 °C 1024.9 hPa NNW 11.3 km/h 16.1 km/h 80% 0 mm
08:51 -2.3 °C -5.5 °C 1024.9 hPa North 16.1 km/h 19.3 km/h 79% 0 mm
08:56 -2.4 °C -5.6 °C 1024.9 hPa North 12.9 km/h 22.5 km/h 79% 0 mm
09:01 -2.4 °C -5.6 °C 1024.9 hPa NNE 12.9 km/h 16.1 km/h 79% 0 mm
09:06 -2.4 °C -5.6 °C 1024.9 hPa NNE 9.7 km/h 17.7 km/h 79% 0 mm
09:11 -2.3 °C -5.5 °C 1025.3 hPa NNE 12.9 km/h 12.9 km/h 79% 0 mm
09:16 -2.3 °C -5.5 °C 1025.3 hPa NNE 8 km/h 17.7 km/h 79% 0 mm
09:21 -2.2 °C -5.4 °C 1025.3 hPa NNE 6.4 km/h 11.3 km/h 79% 0 mm
09:26 -2.2 °C -5.6 °C 1025.3 hPa NNE 14.5 km/h 17.7 km/h 78% 0 mm
09:31 -2.3 °C -5.6 °C 1025.3 hPa North 9.7 km/h 22.5 km/h 78% 0 mm
09:36 -2.3 °C -5.6 °C 1025.6 hPa North 8 km/h 17.7 km/h 78% 0 mm
09:41 -2.3 °C -5.6 °C 1025.6 hPa NNW 8 km/h 16.1 km/h 78% 0 mm
09:46 -2.2 °C -5.6 °C 1026 hPa NNW 11.3 km/h 16.1 km/h 78% 0 mm
09:52 -2.2 °C -5.3 °C 1026 hPa NNW 6.4 km/h 17.7 km/h 79% 0 mm
09:57 -2.1 °C -5.3 °C 1026 hPa NW 12.9 km/h 16.1 km/h 79% 0 mm
10:02 -2.1 °C -5.4 °C 1026.3 hPa NNW 6.4 km/h 12.9 km/h 78% 0 mm
10:07 -1.9 °C -5.1 °C 1026.3 hPa North 14.5 km/h 17.7 km/h 79% 0 mm
10:12 -1.9 °C -5.3 °C 1026.3 hPa NNE 12.9 km/h 14.5 km/h 78% 0 mm
10:17 -2.1 °C -5.4 °C 1026.3 hPa NE 8 km/h 11.3 km/h 78% 0 mm
10:22 -1.8 °C -5.2 °C 1026.6 hPa North 12.9 km/h 16.1 km/h 78% 0 mm
10:27 -1.8 °C -5.3 °C 1026.3 hPa NNW 6.4 km/h 16.1 km/h 77% 0 mm
10:32 -1.6 °C -4.9 °C 1026.6 hPa NNW 9.7 km/h 16.1 km/h 78% 0 mm
10:37 -1.5 °C -5 °C 1026.6 hPa NNE 11.3 km/h 17.7 km/h 77% 0 mm
10:42 -1.5 °C -5 °C 1026.6 hPa NNE 9.7 km/h 14.5 km/h 77% 0 mm
10:47 -1.3 °C -4.6 °C 1026.3 hPa North 17.7 km/h 17.7 km/h 78% 0 mm
10:52 -1.3 °C -4.8 °C 1026.6 hPa NE 16.1 km/h 17.7 km/h 77% 0 mm
10:57 -1.2 °C -4.6 °C 1026.3 hPa NE 8 km/h 12.9 km/h 78% 0 mm
11:02 -1.3 °C -4.9 °C 1026.3 hPa NW 8 km/h 17.7 km/h 76% 0 mm
11:07 -1.2 °C -4.8 °C 1026 hPa NE 11.3 km/h 17.7 km/h 76% 0 mm
11:12 -1 °C -4.2 °C 1026 hPa NNE 16.1 km/h 16.1 km/h 79% 0 mm
11:17 -1.3 °C -5.1 °C 1026 hPa NNW 4.8 km/h 12.9 km/h 75% 0 mm
11:22 -1.3 °C -5 °C 1026 hPa NE 14.5 km/h 16.1 km/h 76% 0 mm
11:27 -1.1 °C -4.4 °C 1026 hPa North 9.7 km/h 14.5 km/h 78% 0 mm
11:32 -0.8 °C -4.2 °C 1026 hPa North 9.7 km/h 17.7 km/h 78% 0 mm
11:37 -0.6 °C -4.1 °C 1026 hPa North 14.5 km/h 14.5 km/h 77% 0 mm
11:42 -0.5 °C -4.2 °C 1025.6 hPa NE 9.7 km/h 16.1 km/h 76% 0 mm
11:47 -0.6 °C -4.3 °C 1025.3 hPa ENE 4.8 km/h 11.3 km/h 76% 0 mm
11:53 -0.2 °C -3.8 °C 1025.3 hPa NNE 8 km/h 16.1 km/h 77% 0 mm
11:58 -0.1 °C -3.8 °C 1025.3 hPa North 12.9 km/h 12.9 km/h 76% 0 mm
12:03 -0.2 °C -4.1 °C 1025.3 hPa NE 12.9 km/h 16.1 km/h 75% 0 mm
12:08 -0.3 °C -4.2 °C 1025.3 hPa NNE 9.7 km/h 16.1 km/h 75% 0 mm
12:13 0.1 °C -3.7 °C 1024.9 hPa NE 12.9 km/h 16.1 km/h 76% 0 mm
12:18 -0.1 °C -4.2 °C 1024.9 hPa East 6.4 km/h 11.3 km/h 74% 0 mm
12:23 0.2 °C -3.4 °C 1024.9 hPa NNE 6.4 km/h 19.3 km/h 77% 0 mm
12:29 0.2 °C -4.1 °C 1024.6 hPa NE 6.4 km/h 14.5 km/h 73% 0 mm
12:34 0.2 °C -4.1 °C 1024.3 hPa North 12.9 km/h 12.9 km/h 73% 0 mm
12:39 0.4 °C -3.3 °C 1023.9 hPa NNE 8 km/h 16.1 km/h 76% 0 mm
12:44 0.2 °C -4.1 °C 1023.9 hPa NNW 9.7 km/h 11.3 km/h 73% 0 mm
12:49 0.3 °C -3.9 °C 1024.3 hPa NNW 3.2 km/h 12.9 km/h 73% 0 mm
12:54 0.6 °C -3.7 °C 1024.3 hPa NW 6.4 km/h 9.7 km/h 73% 0 mm
12:59 0.8 °C -3.3 °C 1024.3 hPa NNE 9.7 km/h 9.7 km/h 74% 0 mm
13:04 0.7 °C -3.8 °C 1024.3 hPa Calm   8 km/h 72% 0 mm
13:09 0.8 °C -3.9 °C 1024.3 hPa NW 8 km/h 14.5 km/h 71% 0 mm
13:14 0.9 °C -3.8 °C 1023.9 hPa WNW 8 km/h 9.7 km/h 71% 0 mm
13:19 0.8 °C -3.8 °C 1023.9 hPa NNE 8 km/h 14.5 km/h 71% 0 mm
13:24 0.9 °C -3.7 °C 1023.9 hPa NW 3.2 km/h 9.7 km/h 71% 0 mm
13:29 1.1 °C -3.4 °C 1023.9 hPa NNE 4.8 km/h 9.7 km/h 72% 0 mm
13:34 1.2 °C -3.5 °C 1023.6 hPa NNW 8 km/h 8 km/h 71% 0 mm
13:39 1.4 °C -3.5 °C 1023.6 hPa WNW 3.2 km/h 9.7 km/h 70% 0 mm
13:44 1.6 °C -3.5 °C 1023.6 hPa NW 1.6 km/h 6.4 km/h 69% 0 mm
13:50 1.4 °C -3.8 °C 1023.9 hPa NNW 6.4 km/h 12.9 km/h 68% 0 mm
13:55 1.6 °C -3.5 °C 1023.9 hPa WNW 4.8 km/h 11.3 km/h 69% 0 mm
14:00 1.7 °C -4 °C 1023.9 hPa NW 6.4 km/h 11.3 km/h 66% 0 mm
14:05 1.6 °C -3.4 °C 1023.6 hPa WNW 3.2 km/h 9.7 km/h 69% 0 mm
14:10 1.7 °C -3.8 °C 1023.6 hPa NE 4.8 km/h 9.7 km/h 67% 0 mm
14:15 1.7 °C -3.7 °C 1023.6 hPa SW 4.8 km/h 11.3 km/h 67% 0 mm
14:20 2 °C -3.3 °C 1023.6 hPa NW 8 km/h 11.3 km/h 68% 0 mm
14:25 1.9 °C -3.3 °C 1023.6 hPa WNW 6.4 km/h 9.7 km/h 68% 0 mm
14:30 2.3 °C -3 °C 1023.2 hPa ENE 1.6 km/h 3.2 km/h 68% 0 mm
14:35 2.4 °C -3.4 °C 1023.2 hPa NNE 1.6 km/h 4.8 km/h 65% 0 mm
14:41 2.3 °C -3.8 °C 1022.9 hPa NW 3.2 km/h 9.7 km/h 64% 0 mm
14:46 2.2 °C -4.1 °C 1023.2 hPa NNE 1.6 km/h 8 km/h 63% 0 mm
14:51 2.3 °C -4.1 °C 1022.9 hPa Calm   9.7 km/h 63% 0 mm
14:56 2.4 °C -4.4 °C 1022.9 hPa NW 1.6 km/h 6.4 km/h 61% 0 mm
15:01 2.4 °C -3.9 °C 1022.9 hPa WNW 3.2 km/h 6.4 km/h 63% 0 mm
15:06 2.4 °C -3.9 °C 1022.6 hPa Calm   4.8 km/h 63% 0 mm
15:11 2.6 °C -3.7 °C 1022.6 hPa NW 4.8 km/h 6.4 km/h 63% 0 mm
15:16 2.8 °C -3.7 °C 1022.2 hPa WNW 4.8 km/h 4.8 km/h 62% 0 mm
15:21 2.7 °C -3.8 °C 1022.2 hPa NE 4.8 km/h 6.4 km/h 62% 0 mm
15:26 2.7 °C -3.9 °C 1022.2 hPa NNW 1.6 km/h 6.4 km/h 62% 0 mm
15:31 2.9 °C -3.8 °C 1022.2 hPa NNE 3.2 km/h 4.8 km/h 61% 0 mm
15:36 3.1 °C -3.7 °C 1022.2 hPa NNW 3.2 km/h 16.1 km/h 61% 0 mm
15:41 3.2 °C -3.2 °C 1022.2 hPa NNW 4.8 km/h 6.4 km/h 63% 0 mm
15:46 3.2 °C -3.4 °C 1022.2 hPa NNE 3.2 km/h 6.4 km/h 62% 0 mm
15:51 2.9 °C -3.7 °C 1022.2 hPa NNE 6.4 km/h 8 km/h 62% 0 mm
15:56 2.9 °C -3.4 °C 1022.2 hPa NNE 6.4 km/h 11.3 km/h 63% 0 mm
16:01 3 °C -3.3 °C 1022.6 hPa NNW 8 km/h 9.7 km/h 63% 0 mm
16:06 3.1 °C -3.3 °C 1022.6 hPa North 11.3 km/h 14.5 km/h 63% 0 mm
16:11 3.2 °C -3.6 °C 1022.2 hPa North 1.6 km/h 11.3 km/h 61% 0 mm
16:16 3.2 °C -3.6 °C 1022.6 hPa NNW 8 km/h 9.7 km/h 61% 0 mm
16:21 3.2 °C -3.4 °C 1022.6 hPa NNE 9.7 km/h 9.7 km/h 62% 0 mm
16:26 3.3 °C -3.5 °C 1022.6 hPa North 4.8 km/h 4.8 km/h 61% 0 mm
16:31 3.1 °C -3.7 °C 1022.2 hPa NE 4.8 km/h 8 km/h 61% 0 mm
16:36 2.9 °C -3.8 °C 1022.2 hPa NNE 4.8 km/h 8 km/h 61% 0 mm
16:41 2.9 °C -3.8 °C 1021.9 hPa East 1.6 km/h 1.6 km/h 61% 0 mm
16:46 3.3 °C -3.7 °C 1022.2 hPa East 3.2 km/h 3.2 km/h 60% 0 mm
16:52 3.2 °C -3.6 °C 1022.6 hPa NNE 3.2 km/h 4.8 km/h 61% 0 mm
16:57 3.1 °C -3.7 °C 1022.2 hPa NW 1.6 km/h 4.8 km/h 61% 0 mm
17:02 2.9 °C -3.7 °C 1022.2 hPa East 3.2 km/h 4.8 km/h 62% 0 mm
17:07 2.8 °C -3.8 °C 1022.6 hPa Calm   1.6 km/h 62% 0 mm
17:12 2.7 °C -3.8 °C 1022.6 hPa East 1.6 km/h 3.2 km/h 62% 0 mm
17:17 2.6 °C -3.7 °C 1022.2 hPa ESE 3.2 km/h 3.2 km/h 63% 0 mm
17:22 2.6 °C -3.9 °C 1022.6 hPa ESE 3.2 km/h 3.2 km/h 62% 0 mm
17:27 2.5 °C -3.8 °C 1022.6 hPa SE 1.6 km/h 3.2 km/h 63% 0 mm
17:32 2.4 °C -3.7 °C 1022.6 hPa SE 3.2 km/h 4.8 km/h 64% 0 mm
17:37 2.3 °C -4.1 °C 1022.6 hPa ESE 3.2 km/h 3.2 km/h 63% 0 mm
17:42 2.3 °C -3.8 °C 1022.2 hPa ESE 1.6 km/h 3.2 km/h 64% 0 mm
17:47 2.4 °C -3.9 °C 1022.2 hPa Calm   1.6 km/h 63% 0 mm
17:52 2.4 °C -3.7 °C 1021.9 hPa East 3.2 km/h 3.2 km/h 64% 0 mm
17:57 2.2 °C -3.7 °C 1021.9 hPa ESE 3.2 km/h 3.2 km/h 65% 0 mm
18:02 2.1 °C -3.2 °C 1021.9 hPa East 1.6 km/h 3.2 km/h 68% 0 mm
18:07 1.9 °C -3.4 °C 1021.9 hPa East 1.6 km/h 3.2 km/h 68% 0 mm
18:12 1.8 °C -3.5 °C 1021.9 hPa East 1.6 km/h 3.2 km/h 68% 0 mm
18:17 1.7 °C -3.6 °C 1021.9 hPa East 3.2 km/h 3.2 km/h 68% 0 mm
18:22 1.6 °C -3.7 °C 1021.6 hPa East 3.2 km/h 3.2 km/h 68% 0 mm
18:27 1.6 °C -3.3 °C 1021.9 hPa ESE 1.6 km/h 3.2 km/h 70% 0 mm
18:32 1.4 °C -3.2 °C 1021.6 hPa East 4.8 km/h 4.8 km/h 71% 0 mm
18:37 1.3 °C -3.2 °C 1021.9 hPa SE 3.2 km/h 3.2 km/h 72% 0 mm
18:42 1.2 °C -2.9 °C 1021.6 hPa East 3.2 km/h 3.2 km/h 74% 0 mm
18:47 1.1 °C -3 °C 1021.6 hPa ESE 1.6 km/h 1.6 km/h 74% 0 mm
18:52 1.1 °C -3.1 °C 1021.2 hPa East 1.6 km/h 3.2 km/h 74% 0 mm
18:57 1 °C -3.3 °C 1021.9 hPa Calm   1.6 km/h 73% 0 mm
19:02 0.9 °C -3.2 °C 1021.6 hPa East 3.2 km/h 3.2 km/h 74% 0 mm
19:08 1 °C -3.5 °C 1021.6 hPa East 1.6 km/h 1.6 km/h 72% 0 mm
19:13 1 °C -3.7 °C 1021.2 hPa ENE 3.2 km/h 3.2 km/h 71% 0 mm
19:18 1 °C -3.5 °C 1021.2 hPa East 3.2 km/h 3.2 km/h 72% 0 mm
19:23 0.9 °C -3.6 °C 1021.2 hPa East 1.6 km/h 3.2 km/h 72% 0 mm
19:28 0.9 °C -3.6 °C 1021.2 hPa Calm   4.8 km/h 72% 0 mm
19:33 0.9 °C -3.6 °C 1021.6 hPa East 1.6 km/h 3.2 km/h 72% 0 mm
19:38 0.9 °C -3.6 °C 1021.6 hPa ESE 1.6 km/h 1.6 km/h 72% 0 mm
19:43 0.9 °C -3.6 °C 1021.6 hPa Calm     72% 0 mm
19:48 0.9 °C -3.6 °C 1021.6 hPa ENE 1.6 km/h 3.2 km/h 72% 0 mm
19:53 0.9 °C -3.6 °C 1021.6 hPa ENE 1.6 km/h 1.6 km/h 72% 0 mm
19:58 0.9 °C -3.4 °C 1021.6 hPa NE 3.2 km/h 3.2 km/h 73% 0 mm
20:03 0.8 °C -3.7 °C 1021.6 hPa NE 1.6 km/h 3.2 km/h 72% 0 mm
20:08 0.7 °C -3.8 °C 1021.6 hPa NE 3.2 km/h 3.2 km/h 72% 0 mm
20:13 0.7 °C -3.9 °C 1021.6 hPa NE 1.6 km/h 1.6 km/h 71% 0 mm
20:18 0.7 °C -4 °C 1021.9 hPa Calm     71% 0 mm
20:23 0.5 °C -3.8 °C 1022.2 hPa NE 1.6 km/h 1.6 km/h 73% 0 mm
20:29 0.3 °C -3.4 °C 1022.2 hPa Calm   1.6 km/h 76% 0 mm
20:34 0.2 °C -3.5 °C 1021.9 hPa Calm   1.6 km/h 76% 0 mm
20:39 0.2 °C -3.4 °C 1021.9 hPa Calm   1.6 km/h 77% 0 mm
20:44 0.2 °C -3.6 °C 1021.9 hPa Calm     76% 0 mm
20:49 0.1 °C -3.6 °C 1021.9 hPa Calm   1.6 km/h 76% 0 mm
20:54 0.2 °C -3.6 °C 1021.9 hPa East 3.2 km/h 3.2 km/h 76% 0 mm
20:59 0.3 °C -3.4 °C 1021.9 hPa East 1.6 km/h 3.2 km/h 76% 0 mm
21:04 0.3 °C -3.1 °C 1021.9 hPa East 1.6 km/h 3.2 km/h 78% 0 mm
21:09 0.4 °C -2.8 °C 1021.9 hPa ESE 1.6 km/h 1.6 km/h 79% 0 mm
21:14 0.3 °C -2.9 °C 1021.9 hPa Calm   1.6 km/h 79% 0 mm
21:19 0.3 °C -2.9 °C 1021.9 hPa ESE 1.6 km/h 1.6 km/h 79% 0 mm
21:24 0.3 °C -3.1 °C 1021.9 hPa ESE 1.6 km/h 3.2 km/h 78% 0 mm
21:29 0.3 °C -2.9 °C 1021.6 hPa ESE 1.6 km/h 3.2 km/h 79% 0 mm
21:34 0.2 °C -3 °C 1021.6 hPa ESE 4.8 km/h 4.8 km/h 79% 0 mm
21:39 0.2 °C -3.2 °C 1021.2 hPa SE 4.8 km/h 6.4 km/h 78% 0 mm
21:44 0.1 °C -3.2 °C 1021.2 hPa SE 3.2 km/h 4.8 km/h 79% 0 mm
21:49 0 °C -3.4 °C 1021.2 hPa ESE 4.8 km/h 6.4 km/h 78% 0 mm
21:54 0 °C -3.6 °C 1021.2 hPa ESE 3.2 km/h 4.8 km/h 77% 0 mm
21:59 -0.1 °C -3.5 °C 1021.2 hPa Calm   3.2 km/h 78% 0 mm
22:04 -0.2 °C -3.6 °C 1021.6 hPa East 1.6 km/h 1.6 km/h 78% 0 mm
22:09 -0.3 °C -3.6 °C 1021.2 hPa SE 3.2 km/h 3.2 km/h 79% 0 mm
22:14 -0.4 °C -3.6 °C 1021.2 hPa SE 1.6 km/h 3.2 km/h 79% 0 mm
22:19 -0.5 °C -3.7 °C 1020.9 hPa SE 4.8 km/h 4.8 km/h 79% 0 mm
22:24 -0.4 °C -3.8 °C 1020.9 hPa ESE 3.2 km/h 6.4 km/h 78% 0 mm
22:29 -0.4 °C -3.8 °C 1020.9 hPa ESE 3.2 km/h 6.4 km/h 78% 0 mm
22:35 -0.4 °C -3.8 °C 1020.9 hPa SE 4.8 km/h 4.8 km/h 78% 0 mm
22:40 -0.4 °C -3.8 °C 1020.5 hPa SE 3.2 km/h 6.4 km/h 78% 0 mm
22:45 -0.6 °C -3.7 °C 1020.5 hPa SE 3.2 km/h 4.8 km/h 79% 0 mm
22:50 -0.6 °C -3.8 °C 1020.2 hPa SE 3.2 km/h 4.8 km/h 79% 0 mm
22:55 -0.7 °C -3.8 °C 1020.2 hPa SE 4.8 km/h 6.4 km/h 79% 0 mm
23:00 -0.6 °C -3.7 °C 1020.2 hPa SSE 4.8 km/h 6.4 km/h 79% 0 mm
23:05 -0.6 °C -3.7 °C 1020.2 hPa SE 6.4 km/h 8 km/h 79% 0 mm
23:10 -0.6 °C -3.7 °C 1020.2 hPa SSE 3.2 km/h 6.4 km/h 79% 0 mm
23:15 -0.6 °C -3.9 °C 1020.2 hPa SE 4.8 km/h 6.4 km/h 78% 0 mm
23:20 -0.6 °C -3.9 °C 1020.2 hPa SE 4.8 km/h 9.7 km/h 78% 0 mm
23:25 -0.7 °C -3.8 °C 1020.2 hPa ESE 4.8 km/h 6.4 km/h 79% 0 mm
23:30 -0.8 °C -3.8 °C 1020.2 hPa ESE 6.4 km/h 9.7 km/h 80% 0 mm
23:35 -0.8 °C -3.8 °C 1020.5 hPa SE 3.2 km/h 8 km/h 80% 0 mm
23:37 -0.8 °C -3.8 °C 1020.5 hPa SE 4.8 km/h 8 km/h 80% 0 mm
23:42 -0.7 °C -3.7 °C 1020.5 hPa SE 3.2 km/h 6.4 km/h 80% 0 mm
23:47 -0.7 °C -3.7 °C 1020.5 hPa SE 3.2 km/h 4.8 km/h 80% 0 mm
23:52 -0.7 °C -3.6 °C 1020.9 hPa SSE 4.8 km/h 4.8 km/h 81% 0 mm
23:57 -0.7 °C -3.6 °C 1020.9 hPa SE 1.6 km/h 4.8 km/h 81% 0 mm
Compliments of Weather Underground